地図

経路データ

SID SEASON NUMBER BASIN SUBBASIN NAME ISO_TIME NATURE LAT LON WMO_WIND WMO_PRES WMO_AGENCY TRACK_TYPE DIST2LAND LANDFALL IFLAG USA_AGENCY USA_ATCF_ID USA_LAT USA_LON USA_RECORD USA_STATUS USA_WIND USA_PRES USA_SSHS USA_R34_NE USA_R34_SE USA_R34_SW USA_R34_NW USA_R50_NE USA_R50_SE USA_R50_SW USA_R50_NW USA_R64_NE USA_R64_SE USA_R64_SW USA_R64_NW USA_POCI USA_ROCI USA_RMW USA_EYE TOKYO_LAT TOKYO_LON TOKYO_GRADE TOKYO_WIND TOKYO_PRES TOKYO_R50_DIR TOKYO_R50_LONG TOKYO_R50_SHORT TOKYO_R30_DIR TOKYO_R30_LONG TOKYO_R30_SHORT TOKYO_LAND CMA_LAT CMA_LON CMA_CAT CMA_WIND CMA_PRES HKO_LAT HKO_LON HKO_CAT HKO_WIND HKO_PRES NEWDELHI_LAT NEWDELHI_LON NEWDELHI_GRADE NEWDELHI_WIND NEWDELHI_PRES NEWDELHI_CI NEWDELHI_DP NEWDELHI_POCI REUNION_LAT REUNION_LON REUNION_TYPE REUNION_WIND REUNION_PRES REUNION_TNUM REUNION_CI REUNION_RMW REUNION_R34_NE REUNION_R34_SE REUNION_R34_SW REUNION_R34_NW REUNION_R50_NE REUNION_R50_SE REUNION_R50_SW REUNION_R50_NW REUNION_R64_NE REUNION_R64_SE REUNION_R64_SW REUNION_R64_NW BOM_LAT BOM_LON BOM_TYPE BOM_WIND BOM_PRES BOM_TNUM BOM_CI BOM_RMW BOM_R34_NE BOM_R34_SE BOM_R34_SW BOM_R34_NW BOM_R50_NE BOM_R50_SE BOM_R50_SW BOM_R50_NW BOM_R64_NE BOM_R64_SE BOM_R64_SW BOM_R64_NW BOM_ROCI BOM_POCI BOM_EYE BOM_POS_METHOD BOM_PRES_METHOD NADI_LAT NADI_LON NADI_CAT NADI_WIND NADI_PRES WELLINGTON_LAT WELLINGTON_LON WELLINGTON_WIND WELLINGTON_PRES DS824_LAT DS824_LON DS824_STAGE DS824_WIND DS824_PRES TD9636_LAT TD9636_LON TD9636_STAGE TD9636_WIND TD9636_PRES TD9635_LAT TD9635_LON TD9635_WIND TD9635_PRES TD9635_ROCI NEUMANN_LAT NEUMANN_LON NEUMANN_CLASS NEUMANN_WIND NEUMANN_PRES MLC_LAT MLC_LON MLC_CLASS MLC_WIND MLC_PRES USA_GUST BOM_GUST BOM_GUST_PER REUNION_GUST REUNION_GUST_PER USA_SEAHGT USA_SEARAD_NE USA_SEARAD_SE USA_SEARAD_SW USA_SEARAD_NW STORM_SPEED STORM_DIR
1862080S09082 1862 11 SI MM NOT_NAMED 1862-03-21 06:00:00 NR -9.20000 82.1000 spur-split 1700 1699 _____O________ -1 -9.20000 82.1000 99 9.90000 3 227
1862080S09082 1862 11 SI MM NOT_NAMED 1862-03-21 09:00:00 NR -9.30764 81.9809 spur-split 1710 1709 _____P________ -1 -9.30764 81.9809 99 3 227
1862080S09082 1862 11 SI MM NOT_NAMED 1862-03-21 12:00:00 NR -9.41572 81.8611 spur-split 1720 1719 _____P________ -1 -9.41572 81.8611 99 3 228
1862080S09082 1862 11 SI MM NOT_NAMED 1862-03-21 15:00:00 NR -9.52472 81.7403 spur-split 1729 1729 _____P________ -1 -9.52472 81.7403 99 3 228
1862080S09082 1862 11 SI MM NOT_NAMED 1862-03-21 18:00:00 NR -9.63510 81.6177 spur-split 1740 1740 _____P________ -1 -9.63510 81.6177 99 3 228
1862080S09082 1862 11 SI MM NOT_NAMED 1862-03-21 21:00:00 NR -9.74735 81.4930 spur-split 1750 1750 _____P________ -1 -9.74735 81.4930 99 3 227
1862080S09082 1862 11 SI MM NOT_NAMED 1862-03-22 00:00:00 NR -9.86193 81.3654 spur-split 1772 1772 _____P________ -1 -9.86193 81.3654 99 3 227
1862080S09082 1862 11 SI MM NOT_NAMED 1862-03-22 03:00:00 NR -9.97932 81.2346 spur-split 1782 1782 _____P________ -1 -9.97932 81.2346 99 4 228
1862080S09082 1862 11 SI MM NOT_NAMED 1862-03-22 06:00:00 NR -10.1000 81.1000 spur-split 1793 1793 _____O________ -1 -10.1000 81.1000 99 9.90000 4 227
1862080S09082 1862 11 SI MM NOT_NAMED 1862-03-22 09:00:00 NR -10.2244 80.9611 spur-split 1804 1804 _____P________ -1 -10.2244 80.9611 99 4 228
1862080S09082 1862 11 SI MM NOT_NAMED 1862-03-22 12:00:00 NR -10.3525 80.8183 spur-split 1826 1826 _____P________ -1 -10.3525 80.8183 99 4 228
1862080S09082 1862 11 SI MM NOT_NAMED 1862-03-22 15:00:00 NR -10.4843 80.6719 spur-split 1837 1837 _____P________ -1 -10.4843 80.6719 99 4 227
1862080S09082 1862 11 SI MM NOT_NAMED 1862-03-22 18:00:00 NR -10.6199 80.5223 spur-split 1848 1848 _____P________ -1 -10.6199 80.5223 99 4 227
1862080S09082 1862 11 SI MM NOT_NAMED 1862-03-22 21:00:00 NR -10.7593 80.3699 spur-split 1871 1871 _____P________ -1 -10.7593 80.3699 99 4 227
1862080S09082 1862 11 SI MM NOT_NAMED 1862-03-23 00:00:00 NR -10.9024 80.2151 spur-split 1882 1882 _____P________ -1 -10.9024 80.2151 99 4 227
1862080S09082 1862 11 SI MM NOT_NAMED 1862-03-23 03:00:00 NR -11.0493 80.0583 spur-split 1894 1894 _____P________ -1 -11.0493 80.0583 99 4 226
1862080S09082 1862 11 SI MM NOT_NAMED 1862-03-23 06:00:00 NR -11.2000 79.9000 reunion spur-split 1917 1917 _____O________ -1 -11.2000 79.9000 99 9.90000 4 227
1862080S09082 1862 11 SI MM NOT_NAMED 1862-03-23 09:00:00 NR -11.3320 79.7551 spur-split 1929 1929 _____P________ -1 -11.3320 79.7551 99 4 227
1862080S09082 1862 11 SI MM NOT_NAMED 1862-03-23 12:00:00 NR -11.4657 79.6096 spur-split 1952 1952 _____P________ -1 -11.4657 79.6096 99 4 226
1862080S09082 1862 11 SI MM NOT_NAMED 1862-03-23 15:00:00 NR -11.6045 79.4615 spur-split 1964 1964 _____P________ -1 -11.6045 79.4615 99 4 226
1862080S09082 1862 11 SI MM NOT_NAMED 1862-03-23 18:00:00 NR -11.7521 79.3084 spur-split 1988 1988 _____P________ -1 -11.7521 79.3084 99 4 225
1862080S09082 1862 11 SI MM NOT_NAMED 1862-03-23 21:00:00 NR -11.9119 79.1480 spur-split 2001 2001 _____P________ -1 -11.9119 79.1480 99 5 224
1862080S09082 1862 11 SI MM NOT_NAMED 1862-03-24 00:00:00 NR -12.0874 78.9780 spur-split 2024 2024 _____P________ -1 -12.0874 78.9780 99 5 223
1862080S09082 1862 11 SI MM NOT_NAMED 1862-03-24 03:00:00 NR -12.2823 78.7961 spur-split 2048 2048 _____P________ -1 -12.2823 78.7961 99 6 222
1862080S09082 1862 11 SI MM NOT_NAMED 1862-03-24 06:00:00 NR -12.5000 78.6000 reunion spur-split 2073 2073 _____O________ -1 -12.5000 78.6000 99 9.90000 6 221
1862080S09082 1862 11 SI MM NOT_NAMED 1862-03-24 09:00:00 NR -12.7375 78.3843 spur-split 2098 2098 _____P________ -1 -12.7375 78.3843 99 7 221
1862080S09082 1862 11 SI MM NOT_NAMED 1862-03-24 12:00:00 NR -12.9968 78.1541 spur-split 2134 2134 _____P________ -1 -12.9968 78.1541 99 7 221
1862080S09082 1862 11 SI MM NOT_NAMED 1862-03-24 15:00:00 NR -13.2759 77.9116 spur-split 2171 2171 _____P________ -1 -13.2759 77.9116 99 8 220
1862080S09082 1862 11 SI MM NOT_NAMED 1862-03-24 18:00:00 NR -13.5728 77.6593 spur-split 2208 2201 _____P________ -1 -13.5728 77.6593 99 8 219
1862080S09082 1862 11 SI MM NOT_NAMED 1862-03-24 21:00:00 NR -13.8856 77.3996 spur-split 2201 2158 _____P________ -1 -13.8856 77.3996 99 8 219
1862080S09082 1862 11 SI MM NOT_NAMED 1862-03-25 00:00:00 NR -14.2124 77.1349 spur-split 2158 2126 _____P________ -1 -14.2124 77.1349 99 8 218
1862080S09082 1862 11 SI MM NOT_NAMED 1862-03-25 03:00:00 NR -14.5511 76.8675 spur-split 2122 2080 _____P________ -1 -14.5511 76.8675 99 9 217
1862080S09082 1862 11 SI MM NOT_NAMED 1862-03-25 06:00:00 NR -14.9000 76.6000 reunion spur-split 2080 2035 _____O________ -1 -14.9000 76.6000 99 9.90000 9 216
1862080S09082 1862 11 SI MM NOT_NAMED 1862-03-25 09:00:00 NR -15.2874 76.3128 spur-split 2035 1991 _____P________ -1 -15.2874 76.3128 99 10 215
1862080S09082 1862 11 SI MM NOT_NAMED 1862-03-25 12:00:00 NR -15.6926 76.0197 spur-split 1991 1947 _____P________ -1 -15.6926 76.0197 99 10 215
1862080S09082 1862 11 SI MM NOT_NAMED 1862-03-25 15:00:00 NR -16.1047 75.7270 spur-split 1947 1914 _____P________ -1 -16.1047 75.7270 99 10 214
1862080S09082 1862 11 SI MM NOT_NAMED 1862-03-25 18:00:00 NR -16.5133 75.4412 spur-split 1904 1871 _____P________ -1 -16.5133 75.4412 99 10 214
1862080S09082 1862 11 SI MM NOT_NAMED 1862-03-25 21:00:00 NR -16.9076 75.1688 spur-split 1871 1830 _____P________ -1 -16.9076 75.1688 99 9 213
1862080S09082 1862 11 SI MM NOT_NAMED 1862-03-26 00:00:00 NR -17.2772 74.9166 spur-split 1830 1802 _____P________ -1 -17.2772 74.9166 99 8 213
1862080S09082 1862 11 SI MM NOT_NAMED 1862-03-26 03:00:00 NR -17.6115 74.6914 spur-split 1802 1774 _____P________ -1 -17.6115 74.6914 99 7 213
1862080S09082 1862 11 SI MM NOT_NAMED 1862-03-26 06:00:00 NR -17.9000 74.5000 reunion spur-split 1774 1759 _____O________ -1 -17.9000 74.5000 99 9.90000 6 212
1862080S09082 1862 11 SI MM NOT_NAMED 1862-03-26 09:00:00 NR -18.1352 74.3474 spur-split 1749 1734 _____P________ -1 -18.1352 74.3474 99 5 211
1862080S09082 1862 11 SI MM NOT_NAMED 1862-03-26 12:00:00 NR -18.3212 74.2307 spur-split 1734 1720 _____P________ -1 -18.3212 74.2307 99 4 211
1862080S09082 1862 11 SI MM NOT_NAMED 1862-03-26 15:00:00 NR -18.4651 74.1448 spur-split 1720 1718 _____P________ -1 -18.4651 74.1448 99 3 209
1862080S09082 1862 11 SI MM NOT_NAMED 1862-03-26 18:00:00 NR -18.5741 74.0848 spur-split 1718 1706 _____P________ -1 -18.5741 74.0848 99 2 207
1862080S09082 1862 11 SI MM NOT_NAMED 1862-03-26 21:00:00 NR -18.6550 74.0454 spur-split 1706 1706 _____P________ -1 -18.6550 74.0454 99 2 203
1862080S09082 1862 11 SI MM NOT_NAMED 1862-03-27 00:00:00 NR -18.7150 74.0216 spur-split 1706 1705 _____P________ -1 -18.7150 74.0216 99 1 199
1862080S09082 1862 11 SI MM NOT_NAMED 1862-03-27 03:00:00 NR -18.7610 74.0082 spur-split 1705 1705 _____P________ -1 -18.7610 74.0082 99 1 196
1862080S09082 1862 11 SI MM NOT_NAMED 1862-03-27 06:00:00 NR -18.8000 74.0000 reunion spur-split 1705 _____O________ -1 -18.8000 74.0000 99 9.90000 1 190

IBTrACS Databaseについて

本データベースは、米国NOAAが公開する1842年以降の世界の熱帯低気圧のベストトラックデータアーカイブInternational Best Track Archive for Climate Stewardship (IBTrACS)を、ウェブで閲覧しやすい形式に変換したものです。

最終更新日:2021-10-08